sensor_id;sensor_type;location;lat;lon;timestamp;temperature;humidity
62573;DHT22;48626;51.678;5.806;2022-07-23T00:00:49;17.90;84.70
62573;DHT22;48626;51.678;5.806;2022-07-23T00:03:14;17.90;84.90
62573;DHT22;48626;51.678;5.806;2022-07-23T00:05:40;17.80;85.20
62573;DHT22;48626;51.678;5.806;2022-07-23T00:08:07;17.70;85.30
62573;DHT22;48626;51.678;5.806;2022-07-23T00:10:33;17.60;85.60
62573;DHT22;48626;51.678;5.806;2022-07-23T00:12:58;17.60;85.90
62573;DHT22;48626;51.678;5.806;2022-07-23T00:15:24;17.50;86.20
62573;DHT22;48626;51.678;5.806;2022-07-23T00:17:50;17.50;86.30
62573;DHT22;48626;51.678;5.806;2022-07-23T00:20:15;17.40;86.50
62573;DHT22;48626;51.678;5.806;2022-07-23T00:22:51;17.40;86.80
62573;DHT22;48626;51.678;5.806;2022-07-23T00:25:19;17.30;87.10
62573;DHT22;48626;51.678;5.806;2022-07-23T00:27:44;17.30;87.10
62573;DHT22;48626;51.678;5.806;2022-07-23T00:30:11;17.30;87.30
62573;DHT22;48626;51.678;5.806;2022-07-23T00:33:04;17.20;87.30
62573;DHT22;48626;51.678;5.806;2022-07-23T00:35:34;17.20;87.40
62573;DHT22;48626;51.678;5.806;2022-07-23T00:38:00;17.10;87.60
62573;DHT22;48626;51.678;5.806;2022-07-23T00:40:27;17.10;87.90
62573;DHT22;48626;51.678;5.806;2022-07-23T00:42:53;17.00;88.10
62573;DHT22;48626;51.678;5.806;2022-07-23T00:45:19;17.00;88.40
62573;DHT22;48626;51.678;5.806;2022-07-23T00:47:45;17.00;88.50
62573;DHT22;48626;51.678;5.806;2022-07-23T00:50:11;17.00;88.60
62573;DHT22;48626;51.678;5.806;2022-07-23T00:52:38;17.00;88.80
62573;DHT22;48626;51.678;5.806;2022-07-23T00:55:04;16.90;89.00
62573;DHT22;48626;51.678;5.806;2022-07-23T00:57:31;16.90;89.20
62573;DHT22;48626;51.678;5.806;2022-07-23T00:59:56;16.80;89.30
62573;DHT22;48626;51.678;5.806;2022-07-23T01:02:24;16.80;89.60
62573;DHT22;48626;51.678;5.806;2022-07-23T01:04:50;16.80;89.70
62573;DHT22;48626;51.678;5.806;2022-07-23T01:07:16;16.70;89.80
62573;DHT22;48626;51.678;5.806;2022-07-23T01:09:43;16.70;90.00
62573;DHT22;48626;51.678;5.806;2022-07-23T01:12:09;16.70;90.10
62573;DHT22;48626;51.678;5.806;2022-07-23T01:14:35;16.60;90.10
62573;DHT22;48626;51.678;5.806;2022-07-23T01:17:00;16.60;90.10
62573;DHT22;48626;51.678;5.806;2022-07-23T01:19:26;16.50;90.20
62573;DHT22;48626;51.678;5.806;2022-07-23T01:21:53;16.50;90.30
62573;DHT22;48626;51.678;5.806;2022-07-23T01:24:19;16.50;90.40
62573;DHT22;48626;51.678;5.806;2022-07-23T01:26:45;16.50;90.50
62573;DHT22;48626;51.678;5.806;2022-07-23T01:29:12;16.50;90.60
62573;DHT22;48626;51.678;5.806;2022-07-23T01:31:38;16.50;90.70
62573;DHT22;48626;51.678;5.806;2022-07-23T01:34:03;16.50;90.70
62573;DHT22;48626;51.678;5.806;2022-07-23T01:36:30;16.40;90.60
62573;DHT22;48626;51.678;5.806;2022-07-23T01:38:56;16.40;90.60
62573;DHT22;48626;51.678;5.806;2022-07-23T01:41:21;16.30;90.70
62573;DHT22;48626;51.678;5.806;2022-07-23T01:43:47;16.30;90.80
62573;DHT22;48626;51.678;5.806;2022-07-23T01:46:13;16.30;90.90
62573;DHT22;48626;51.678;5.806;2022-07-23T01:48:39;16.20;90.90
62573;DHT22;48626;51.678;5.806;2022-07-23T01:51:04;16.20;91.00
62573;DHT22;48626;51.678;5.806;2022-07-23T01:53:30;16.20;91.40
62573;DHT22;48626;51.678;5.806;2022-07-23T01:55:59;16.10;91.10
62573;DHT22;48626;51.678;5.806;2022-07-23T01:58:26;16.10;91.10
62573;DHT22;48626;51.678;5.806;2022-07-23T02:00:52;16.00;91.10
62573;DHT22;48626;51.678;5.806;2022-07-23T02:03:18;16.00;91.20
62573;DHT22;48626;51.678;5.806;2022-07-23T02:05:44;16.00;91.20
62573;DHT22;48626;51.678;5.806;2022-07-23T02:08:09;16.00;91.20
62573;DHT22;48626;51.678;5.806;2022-07-23T02:10:35;16.00;91.50
62573;DHT22;48626;51.678;5.806;2022-07-23T02:13:01;15.90;91.90
62573;DHT22;48626;51.678;5.806;2022-07-23T02:15:26;15.90;91.60
62573;DHT22;48626;51.678;5.806;2022-07-23T02:17:54;15.90;91.60
62573;DHT22;48626;51.678;5.806;2022-07-23T02:20:20;15.80;91.60
62573;DHT22;48626;51.678;5.806;2022-07-23T02:22:45;15.80;91.60
62573;DHT22;48626;51.678;5.806;2022-07-23T02:25:11;15.80;91.70
62573;DHT22;48626;51.678;5.806;2022-07-23T02:27:37;15.70;91.70
62573;DHT22;48626;51.678;5.806;2022-07-23T02:30:03;15.70;91.80
62573;DHT22;48626;51.678;5.806;2022-07-23T02:32:29;15.70;91.90
62573;DHT22;48626;51.678;5.806;2022-07-23T02:34:55;15.70;91.90
62573;DHT22;48626;51.678;5.806;2022-07-23T02:37:21;15.60;92.00
62573;DHT22;48626;51.678;5.806;2022-07-23T02:39:47;15.60;92.00
62573;DHT22;48626;51.678;5.806;2022-07-23T02:42:14;15.50;92.10
62573;DHT22;48626;51.678;5.806;2022-07-23T02:44:39;15.50;92.30
62573;DHT22;48626;51.678;5.806;2022-07-23T02:47:05;15.50;92.30
62573;DHT22;48626;51.678;5.806;2022-07-23T02:49:31;15.50;92.30
62573;DHT22;48626;51.678;5.806;2022-07-23T02:51:56;15.40;92.30
62573;DHT22;48626;51.678;5.806;2022-07-23T02:54:22;15.40;92.30
62573;DHT22;48626;51.678;5.806;2022-07-23T02:56:48;15.40;92.30
62573;DHT22;48626;51.678;5.806;2022-07-23T02:59:16;15.40;92.30
62573;DHT22;48626;51.678;5.806;2022-07-23T03:01:41;15.40;92.30
62573;DHT22;48626;51.678;5.806;2022-07-23T03:04:07;15.40;92.40
62573;DHT22;48626;51.678;5.806;2022-07-23T03:06:32;15.30;92.30
62573;DHT22;48626;51.678;5.806;2022-07-23T03:08:59;15.30;92.40
62573;DHT22;48626;51.678;5.806;2022-07-23T03:11:24;15.30;92.40
62573;DHT22;48626;51.678;5.806;2022-07-23T03:13:50;15.30;92.50
62573;DHT22;48626;51.678;5.806;2022-07-23T03:16:15;15.30;92.50
62573;DHT22;48626;51.678;5.806;2022-07-23T03:18:41;15.30;92.50
62573;DHT22;48626;51.678;5.806;2022-07-23T03:21:07;15.20;92.50
62573;DHT22;48626;51.678;5.806;2022-07-23T03:23:33;15.30;92.60
62573;DHT22;48626;51.678;5.806;2022-07-23T03:25:58;15.20;92.60
62573;DHT22;48626;51.678;5.806;2022-07-23T03:28:24;15.20;92.60
62573;DHT22;48626;51.678;5.806;2022-07-23T03:30:49;15.20;92.70
62573;DHT22;48626;51.678;5.806;2022-07-23T03:33:16;15.20;92.70
62573;DHT22;48626;51.678;5.806;2022-07-23T03:35:47;15.10;92.60
62573;DHT22;48626;51.678;5.806;2022-07-23T03:38:13;15.10;92.70
62573;DHT22;48626;51.678;5.806;2022-07-23T03:40:39;15.00;92.70
62573;DHT22;48626;51.678;5.806;2022-07-23T03:43:04;15.00;92.80
62573;DHT22;48626;51.678;5.806;2022-07-23T03:45:30;15.00;92.80
62573;DHT22;48626;51.678;5.806;2022-07-23T03:47:56;15.00;92.80
62573;DHT22;48626;51.678;5.806;2022-07-23T03:50:22;15.00;92.80
62573;DHT22;48626;51.678;5.806;2022-07-23T03:52:47;14.90;92.80
62573;DHT22;48626;51.678;5.806;2022-07-23T03:55:13;14.90;92.90
62573;DHT22;48626;51.678;5.806;2022-07-23T03:57:39;14.90;92.90
62573;DHT22;48626;51.678;5.806;2022-07-23T04:00:07;14.90;93.00
62573;DHT22;48626;51.678;5.806;2022-07-23T04:02:35;14.90;93.00
62573;DHT22;48626;51.678;5.806;2022-07-23T04:05:01;14.80;93.10
62573;DHT22;48626;51.678;5.806;2022-07-23T04:07:26;14.90;93.20
62573;DHT22;48626;51.678;5.806;2022-07-23T04:09:52;14.90;93.20
62573;DHT22;48626;51.678;5.806;2022-07-23T04:12:18;14.90;93.20
62573;DHT22;48626;51.678;5.806;2022-07-23T04:14:44;14.90;93.30
62573;DHT22;48626;51.678;5.806;2022-07-23T04:17:11;14.90;93.30
62573;DHT22;48626;51.678;5.806;2022-07-23T04:19:36;14.90;93.40
62573;DHT22;48626;51.678;5.806;2022-07-23T04:22:06;14.90;93.40
62573;DHT22;48626;51.678;5.806;2022-07-23T04:24:32;14.90;93.50
62573;DHT22;48626;51.678;5.806;2022-07-23T04:26:57;14.90;93.60
62573;DHT22;48626;51.678;5.806;2022-07-23T04:29:23;14.90;93.60
62573;DHT22;48626;51.678;5.806;2022-07-23T04:31:49;14.90;93.60
62573;DHT22;48626;51.678;5.806;2022-07-23T04:34:15;14.90;93.60
62573;DHT22;48626;51.678;5.806;2022-07-23T04:36:41;14.90;93.60
62573;DHT22;48626;51.678;5.806;2022-07-23T04:39:06;14.90;93.70
62573;DHT22;48626;51.678;5.806;2022-07-23T04:41:32;14.90;93.80
62573;DHT22;48626;51.678;5.806;2022-07-23T04:43:59;15.00;93.80
62573;DHT22;48626;51.678;5.806;2022-07-23T04:46:24;15.00;93.90
62573;DHT22;48626;51.678;5.806;2022-07-23T04:48:50;15.00;94.00
62573;DHT22;48626;51.678;5.806;2022-07-23T04:51:15;15.00;94.00
62573;DHT22;48626;51.678;5.806;2022-07-23T04:53:41;15.10;94.00
62573;DHT22;48626;51.678;5.806;2022-07-23T04:56:07;15.10;94.10
62573;DHT22;48626;51.678;5.806;2022-07-23T04:58:32;15.10;94.10
62573;DHT22;48626;51.678;5.806;2022-07-23T05:00:58;15.10;94.10
62573;DHT22;48626;51.678;5.806;2022-07-23T05:03:24;15.20;94.10
62573;DHT22;48626;51.678;5.806;2022-07-23T05:05:49;15.20;94.10
62573;DHT22;48626;51.678;5.806;2022-07-23T05:08:15;15.20;94.20
62573;DHT22;48626;51.678;5.806;2022-07-23T05:10:41;15.30;94.20
62573;DHT22;48626;51.678;5.806;2022-07-23T05:13:06;15.30;94.20
62573;DHT22;48626;51.678;5.806;2022-07-23T05:15:32;15.40;94.20
62573;DHT22;48626;51.678;5.806;2022-07-23T05:17:58;15.40;94.20
62573;DHT22;48626;51.678;5.806;2022-07-23T05:20:23;15.50;94.20
62573;DHT22;48626;51.678;5.806;2022-07-23T05:22:49;15.50;94.20
62573;DHT22;48626;51.678;5.806;2022-07-23T05:25:15;15.60;94.20
62573;DHT22;48626;51.678;5.806;2022-07-23T05:27:40;15.60;94.30
62573;DHT22;48626;51.678;5.806;2022-07-23T05:30:07;15.70;94.20
62573;DHT22;48626;51.678;5.806;2022-07-23T05:32:33;15.80;94.40
62573;DHT22;48626;51.678;5.806;2022-07-23T05:34:58;15.90;94.40
62573;DHT22;48626;51.678;5.806;2022-07-23T05:37:24;15.90;94.30
62573;DHT22;48626;51.678;5.806;2022-07-23T05:39:50;16.00;94.30
62573;DHT22;48626;51.678;5.806;2022-07-23T05:42:16;16.10;94.20
62573;DHT22;48626;51.678;5.806;2022-07-23T05:44:41;16.20;94.10
62573;DHT22;48626;51.678;5.806;2022-07-23T05:47:07;16.20;94.00
62573;DHT22;48626;51.678;5.806;2022-07-23T05:49:32;16.30;93.90
62573;DHT22;48626;51.678;5.806;2022-07-23T05:51:58;16.40;93.90
62573;DHT22;48626;51.678;5.806;2022-07-23T05:54:24;16.50;93.90
62573;DHT22;48626;51.678;5.806;2022-07-23T05:56:50;16.60;93.50
62573;DHT22;48626;51.678;5.806;2022-07-23T05:59:15;16.70;93.40
62573;DHT22;48626;51.678;5.806;2022-07-23T06:01:41;16.80;93.40
62573;DHT22;48626;51.678;5.806;2022-07-23T06:04:07;16.80;93.30
62573;DHT22;48626;51.678;5.806;2022-07-23T06:06:33;17.00;93.30
62573;DHT22;48626;51.678;5.806;2022-07-23T06:08:59;17.10;93.00
62573;DHT22;48626;51.678;5.806;2022-07-23T06:11:24;17.10;92.70
62573;DHT22;48626;51.678;5.806;2022-07-23T06:13:50;17.20;92.60
62573;DHT22;48626;51.678;5.806;2022-07-23T06:16:15;17.30;92.40
62573;DHT22;48626;51.678;5.806;2022-07-23T06:18:41;17.40;92.20
62573;DHT22;48626;51.678;5.806;2022-07-23T06:21:07;17.40;91.90
62573;DHT22;48626;51.678;5.806;2022-07-23T06:23:32;17.50;91.90
62573;DHT22;48626;51.678;5.806;2022-07-23T06:25:59;17.60;91.90
62573;DHT22;48626;51.678;5.806;2022-07-23T06:28:25;17.60;91.40
62573;DHT22;48626;51.678;5.806;2022-07-23T06:30:50;17.70;91.50
62573;DHT22;48626;51.678;5.806;2022-07-23T06:33:16;17.90;91.40
62573;DHT22;48626;51.678;5.806;2022-07-23T06:35:41;17.90;91.30
62573;DHT22;48626;51.678;5.806;2022-07-23T06:38:07;18.00;91.20
62573;DHT22;48626;51.678;5.806;2022-07-23T06:40:33;18.10;91.10
62573;DHT22;48626;51.678;5.806;2022-07-23T06:42:58;18.20;90.90
62573;DHT22;48626;51.678;5.806;2022-07-23T06:45:24;18.40;91.10
62573;DHT22;48626;51.678;5.806;2022-07-23T06:47:50;18.50;90.10
62573;DHT22;48626;51.678;5.806;2022-07-23T06:50:15;18.60;90.40
62573;DHT22;48626;51.678;5.806;2022-07-23T06:52:41;18.70;89.90
62573;DHT22;48626;51.678;5.806;2022-07-23T06:55:07;18.80;88.80
62573;DHT22;48626;51.678;5.806;2022-07-23T06:57:32;18.90;88.60
62573;DHT22;48626;51.678;5.806;2022-07-23T06:59:58;19.00;88.20
62573;DHT22;48626;51.678;5.806;2022-07-23T07:02:23;19.00;87.50
62573;DHT22;48626;51.678;5.806;2022-07-23T07:04:49;19.10;86.00
62573;DHT22;48626;51.678;5.806;2022-07-23T07:07:15;19.20;85.90
62573;DHT22;48626;51.678;5.806;2022-07-23T07:09:41;19.30;85.80
62573;DHT22;48626;51.678;5.806;2022-07-23T07:12:07;19.40;84.90
62573;DHT22;48626;51.678;5.806;2022-07-23T07:14:32;19.40;83.70
62573;DHT22;48626;51.678;5.806;2022-07-23T07:16:58;19.40;82.10
62573;DHT22;48626;51.678;5.806;2022-07-23T07:19:23;19.50;83.40
62573;DHT22;48626;51.678;5.806;2022-07-23T07:21:49;19.60;82.70
62573;DHT22;48626;51.678;5.806;2022-07-23T07:24:15;19.60;82.20
62573;DHT22;48626;51.678;5.806;2022-07-23T07:26:40;19.70;81.30
62573;DHT22;48626;51.678;5.806;2022-07-23T07:29:06;19.80;81.50
62573;DHT22;48626;51.678;5.806;2022-07-23T07:31:32;19.90;80.60
62573;DHT22;48626;51.678;5.806;2022-07-23T07:33:58;20.00;80.90
62573;DHT22;48626;51.678;5.806;2022-07-23T07:36:24;20.00;79.50
62573;DHT22;48626;51.678;5.806;2022-07-23T07:38:49;20.10;79.40
62573;DHT22;48626;51.678;5.806;2022-07-23T07:41:15;20.10;78.30
62573;DHT22;48626;51.678;5.806;2022-07-23T07:43:41;20.20;76.90
62573;DHT22;48626;51.678;5.806;2022-07-23T07:46:07;20.30;76.30
62573;DHT22;48626;51.678;5.806;2022-07-23T07:48:36;20.40;77.30
62573;DHT22;48626;51.678;5.806;2022-07-23T07:51:02;20.50;77.30
62573;DHT22;48626;51.678;5.806;2022-07-23T07:53:28;20.60;77.20
62573;DHT22;48626;51.678;5.806;2022-07-23T07:55:54;20.70;76.70
62573;DHT22;48626;51.678;5.806;2022-07-23T07:58:19;20.90;75.50
62573;DHT22;48626;51.678;5.806;2022-07-23T08:00:45;20.90;75.00
62573;DHT22;48626;51.678;5.806;2022-07-23T08:03:11;20.90;73.30
62573;DHT22;48626;51.678;5.806;2022-07-23T08:05:37;20.90;74.20
62573;DHT22;48626;51.678;5.806;2022-07-23T08:08:03;21.00;74.80
62573;DHT22;48626;51.678;5.806;2022-07-23T08:10:29;21.00;72.40
62573;DHT22;48626;51.678;5.806;2022-07-23T08:12:57;21.10;72.50
62573;DHT22;48626;51.678;5.806;2022-07-23T08:15:24;21.10;71.90
62573;DHT22;48626;51.678;5.806;2022-07-23T08:17:50;21.20;72.50
62573;DHT22;48626;51.678;5.806;2022-07-23T08:20:18;21.30;70.00
62573;DHT22;48626;51.678;5.806;2022-07-23T08:25:16;21.40;68.90
62573;DHT22;48626;51.678;5.806;2022-07-23T08:27:42;21.40;69.60
62573;DHT22;48626;51.678;5.806;2022-07-23T08:30:08;21.40;69.50
62573;DHT22;48626;51.678;5.806;2022-07-23T08:32:57;21.50;69.60
62573;DHT22;48626;51.678;5.806;2022-07-23T08:35:36;21.70;70.10
62573;DHT22;48626;51.678;5.806;2022-07-23T08:38:04;21.80;69.80
62573;DHT22;48626;51.678;5.806;2022-07-23T08:40:32;22.00;68.50
62573;DHT22;48626;51.678;5.806;2022-07-23T08:42:58;22.00;68.10
62573;DHT22;48626;51.678;5.806;2022-07-23T08:45:25;22.10;68.40
62573;DHT22;48626;51.678;5.806;2022-07-23T08:47:55;22.10;66.60
62573;DHT22;48626;51.678;5.806;2022-07-23T08:50:22;22.10;67.80
62573;DHT22;48626;51.678;5.806;2022-07-23T08:52:50;22.20;68.10
62573;DHT22;48626;51.678;5.806;2022-07-23T08:55:19;22.30;67.70
62573;DHT22;48626;51.678;5.806;2022-07-23T08:57:48;22.40;68.70
62573;DHT22;48626;51.678;5.806;2022-07-23T09:00:15;22.50;68.70
62573;DHT22;48626;51.678;5.806;2022-07-23T09:02:42;22.70;68.40
62573;DHT22;48626;51.678;5.806;2022-07-23T09:05:09;22.70;67.90
62573;DHT22;48626;51.678;5.806;2022-07-23T09:07:37;22.80;67.40
62573;DHT22;48626;51.678;5.806;2022-07-23T09:10:10;22.60;65.20
62573;DHT22;48626;51.678;5.806;2022-07-23T09:12:37;22.70;66.80
62573;DHT22;48626;51.678;5.806;2022-07-23T09:15:05;22.90;65.80
62573;DHT22;48626;51.678;5.806;2022-07-23T09:17:38;23.10;65.30
62573;DHT22;48626;51.678;5.806;2022-07-23T09:20:10;23.10;62.80
62573;DHT22;48626;51.678;5.806;2022-07-23T09:22:37;23.20;64.60
62573;DHT22;48626;51.678;5.806;2022-07-23T09:27:55;23.60;63.90
62573;DHT22;48626;51.678;5.806;2022-07-23T09:30:24;24.00;63.40
62573;DHT22;48626;51.678;5.806;2022-07-23T09:35:53;24.20;61.30
62573;DHT22;48626;51.678;5.806;2022-07-23T09:38:20;24.50;62.60
62573;DHT22;48626;51.678;5.806;2022-07-23T09:41:04;24.50;62.50
62573;DHT22;48626;51.678;5.806;2022-07-23T09:43:31;24.60;61.70
62573;DHT22;48626;51.678;5.806;2022-07-23T09:46:17;24.70;63.00
62573;DHT22;48626;51.678;5.806;2022-07-23T09:48:42;24.80;61.40
62573;DHT22;48626;51.678;5.806;2022-07-23T09:51:08;24.80;62.50
62573;DHT22;48626;51.678;5.806;2022-07-23T09:53:34;24.70;63.20
62573;DHT22;48626;51.678;5.806;2022-07-23T09:56:00;24.60;62.90
62573;DHT22;48626;51.678;5.806;2022-07-23T09:58:26;24.50;62.60
62573;DHT22;48626;51.678;5.806;2022-07-23T10:00:53;24.50;63.30
62573;DHT22;48626;51.678;5.806;2022-07-23T10:03:19;24.60;63.40
62573;DHT22;48626;51.678;5.806;2022-07-23T10:05:45;24.90;64.00
62573;DHT22;48626;51.678;5.806;2022-07-23T10:08:12;25.00;62.80
62573;DHT22;48626;51.678;5.806;2022-07-23T10:10:39;25.20;62.80
62573;DHT22;48626;51.678;5.806;2022-07-23T10:13:05;25.40;63.20
62573;DHT22;48626;51.678;5.806;2022-07-23T10:15:51;25.50;62.40
62573;DHT22;48626;51.678;5.806;2022-07-23T10:18:17;25.60;61.80
62573;DHT22;48626;51.678;5.806;2022-07-23T10:20:43;25.60;56.70
62573;DHT22;48626;51.678;5.806;2022-07-23T10:23:33;25.50;59.10
62573;DHT22;48626;51.678;5.806;2022-07-23T10:26:47;25.60;57.80
62573;DHT22;48626;51.678;5.806;2022-07-23T10:32:00;25.70;56.40
62573;DHT22;48626;51.678;5.806;2022-07-23T10:37:21;26.00;62.50
62573;DHT22;48626;51.678;5.806;2022-07-23T10:42:37;26.50;54.90
62573;DHT22;48626;51.678;5.806;2022-07-23T10:47:54;26.30;52.40
62573;DHT22;48626;51.678;5.806;2022-07-23T10:50:27;26.40;56.60
62573;DHT22;48626;51.678;5.806;2022-07-23T10:58:03;27.50;56.90
62573;DHT22;48626;51.678;5.806;2022-07-23T11:00:31;27.50;53.60
62573;DHT22;48626;51.678;5.806;2022-07-23T11:03:02;27.90;55.40
62573;DHT22;48626;51.678;5.806;2022-07-23T11:05:46;28.30;51.80
62573;DHT22;48626;51.678;5.806;2022-07-23T11:08:19;28.20;49.40
62573;DHT22;48626;51.678;5.806;2022-07-23T11:10:52;28.50;52.20
62573;DHT22;48626;51.678;5.806;2022-07-23T11:24:13;30.20;52.50
62573;DHT22;48626;51.678;5.806;2022-07-23T11:26:57;30.40;49.30
62573;DHT22;48626;51.678;5.806;2022-07-23T11:31:55;30.20;44.40
62573;DHT22;48626;51.678;5.806;2022-07-23T11:34:28;30.30;42.80
62573;DHT22;48626;51.678;5.806;2022-07-23T11:36:54;30.10;45.00
62573;DHT22;48626;51.678;5.806;2022-07-23T11:39:20;30.30;49.20
62573;DHT22;48626;51.678;5.806;2022-07-23T11:41:47;30.80;45.20
62573;DHT22;48626;51.678;5.806;2022-07-23T11:44:34;30.90;47.70
62573;DHT22;48626;51.678;5.806;2022-07-23T11:49:26;30.20;47.60
62573;DHT22;48626;51.678;5.806;2022-07-23T11:52:06;30.30;50.20
62573;DHT22;48626;51.678;5.806;2022-07-23T11:54:33;30.50;45.30
62573;DHT22;48626;51.678;5.806;2022-07-23T11:57:00;30.70;43.40
62573;DHT22;48626;51.678;5.806;2022-07-23T11:59:30;30.50;45.20
62573;DHT22;48626;51.678;5.806;2022-07-23T12:02:04;30.80;46.10
62573;DHT22;48626;51.678;5.806;2022-07-23T12:04:47;31.20;48.00
62573;DHT22;48626;51.678;5.806;2022-07-23T12:07:30;31.20;43.00
62573;DHT22;48626;51.678;5.806;2022-07-23T12:10:02;31.40;47.20
62573;DHT22;48626;51.678;5.806;2022-07-23T12:12:35;31.60;45.00
62573;DHT22;48626;51.678;5.806;2022-07-23T12:15:01;32.20;46.20
62573;DHT22;48626;51.678;5.806;2022-07-23T12:17:32;32.30;44.60
62573;DHT22;48626;51.678;5.806;2022-07-23T12:19:59;32.10;43.80
62573;DHT22;48626;51.678;5.806;2022-07-23T12:22:33;31.90;40.10
62573;DHT22;48626;51.678;5.806;2022-07-23T12:25:02;31.90;43.70
62573;DHT22;48626;51.678;5.806;2022-07-23T12:27:29;32.40;41.80
62573;DHT22;48626;51.678;5.806;2022-07-23T12:29:55;32.90;42.00
62573;DHT22;48626;51.678;5.806;2022-07-23T12:32:27;33.00;44.30
62573;DHT22;48626;51.678;5.806;2022-07-23T12:35:07;33.10;42.00
62573;DHT22;48626;51.678;5.806;2022-07-23T12:37:38;32.10;41.50
62573;DHT22;48626;51.678;5.806;2022-07-23T12:40:26;31.20;40.90
62573;DHT22;48626;51.678;5.806;2022-07-23T12:43:02;30.70;41.20
62573;DHT22;48626;51.678;5.806;2022-07-23T12:45:48;31.20;45.60
62573;DHT22;48626;51.678;5.806;2022-07-23T12:48:29;32.30;45.00
62573;DHT22;48626;51.678;5.806;2022-07-23T12:53:36;33.50;40.80
62573;DHT22;48626;51.678;5.806;2022-07-23T12:56:08;34.10;38.90
62573;DHT22;48626;51.678;5.806;2022-07-23T12:58:52;34.30;40.70
62573;DHT22;48626;51.678;5.806;2022-07-23T13:03:56;34.40;36.40
62573;DHT22;48626;51.678;5.806;2022-07-23T13:06:22;34.80;37.80
62573;DHT22;48626;51.678;5.806;2022-07-23T13:08:48;35.40;41.90
62573;DHT22;48626;51.678;5.806;2022-07-23T13:11:14;35.80;38.20
62573;DHT22;48626;51.678;5.806;2022-07-23T13:13:39;36.10;38.10
62573;DHT22;48626;51.678;5.806;2022-07-23T13:16:06;36.40;35.40
62573;DHT22;48626;51.678;5.806;2022-07-23T13:18:32;36.80;37.10
62573;DHT22;48626;51.678;5.806;2022-07-23T13:20:58;36.70;34.70
62573;DHT22;48626;51.678;5.806;2022-07-23T13:23:24;36.80;37.00
62573;DHT22;48626;51.678;5.806;2022-07-23T13:25:50;37.00;32.00
62573;DHT22;48626;51.678;5.806;2022-07-23T13:28:17;36.60;29.90
62573;DHT22;48626;51.678;5.806;2022-07-23T13:30:44;36.60;30.90
62573;DHT22;48626;51.678;5.806;2022-07-23T13:33:10;36.60;34.10
62573;DHT22;48626;51.678;5.806;2022-07-23T13:35:37;36.80;34.10
62573;DHT22;48626;51.678;5.806;2022-07-23T13:38:06;37.00;35.60
62573;DHT22;48626;51.678;5.806;2022-07-23T13:40:36;37.10;36.70
62573;DHT22;48626;51.678;5.806;2022-07-23T13:43:05;37.50;35.20
62573;DHT22;48626;51.678;5.806;2022-07-23T13:45:31;37.50;29.80
62573;DHT22;48626;51.678;5.806;2022-07-23T13:47:56;37.40;32.10
62573;DHT22;48626;51.678;5.806;2022-07-23T13:50:22;37.50;29.60
62573;DHT22;48626;51.678;5.806;2022-07-23T13:52:48;37.70;35.10
62573;DHT22;48626;51.678;5.806;2022-07-23T13:55:13;38.30;32.40
62573;DHT22;48626;51.678;5.806;2022-07-23T13:57:39;37.30;28.50
62573;DHT22;48626;51.678;5.806;2022-07-23T14:00:06;35.80;28.70
62573;DHT22;48626;51.678;5.806;2022-07-23T14:02:35;34.70;32.30
62573;DHT22;48626;51.678;5.806;2022-07-23T14:05:01;34.80;30.00
62573;DHT22;48626;51.678;5.806;2022-07-23T14:07:26;35.30;36.00
62573;DHT22;48626;51.678;5.806;2022-07-23T14:09:52;35.90;36.00
62573;DHT22;48626;51.678;5.806;2022-07-23T14:12:17;35.70;33.50
62573;DHT22;48626;51.678;5.806;2022-07-23T14:14:43;34.30;32.90
62573;DHT22;48626;51.678;5.806;2022-07-23T14:17:09;33.60;34.80
62573;DHT22;48626;51.678;5.806;2022-07-23T14:19:35;33.00;36.00
62573;DHT22;48626;51.678;5.806;2022-07-23T14:22:00;32.70;37.90
62573;DHT22;48626;51.678;5.806;2022-07-23T14:24:26;33.60;40.80
62573;DHT22;48626;51.678;5.806;2022-07-23T14:26:52;34.70;37.00
62573;DHT22;48626;51.678;5.806;2022-07-23T14:29:17;35.70;38.50
62573;DHT22;48626;51.678;5.806;2022-07-23T14:31:43;36.60;36.60
62573;DHT22;48626;51.678;5.806;2022-07-23T14:34:09;37.00;34.00
62573;DHT22;48626;51.678;5.806;2022-07-23T14:36:34;36.80;32.30
62573;DHT22;48626;51.678;5.806;2022-07-23T14:39:00;37.00;33.50
62573;DHT22;48626;51.678;5.806;2022-07-23T14:41:26;36.40;33.50
62573;DHT22;48626;51.678;5.806;2022-07-23T14:43:51;35.50;33.60
62573;DHT22;48626;51.678;5.806;2022-07-23T14:46:17;35.10;35.00
62573;DHT22;48626;51.678;5.806;2022-07-23T14:48:42;35.10;37.80
62573;DHT22;48626;51.678;5.806;2022-07-23T14:51:08;35.60;36.80
62573;DHT22;48626;51.678;5.806;2022-07-23T14:53:34;35.90;35.30
62573;DHT22;48626;51.678;5.806;2022-07-23T14:55:59;36.00;36.00
62573;DHT22;48626;51.678;5.806;2022-07-23T14:58:25;36.10;37.30
62573;DHT22;48626;51.678;5.806;2022-07-23T15:00:51;36.40;37.00
62573;DHT22;48626;51.678;5.806;2022-07-23T15:03:17;36.90;35.30
62573;DHT22;48626;51.678;5.806;2022-07-23T15:05:43;37.30;34.70
62573;DHT22;48626;51.678;5.806;2022-07-23T15:08:09;37.30;34.10
62573;DHT22;48626;51.678;5.806;2022-07-23T15:10:35;37.00;32.50
62573;DHT22;48626;51.678;5.806;2022-07-23T15:13:00;36.40;32.50
62573;DHT22;48626;51.678;5.806;2022-07-23T15:15:26;35.70;31.10
62573;DHT22;48626;51.678;5.806;2022-07-23T15:17:52;35.00;35.20
62573;DHT22;48626;51.678;5.806;2022-07-23T15:20:17;34.20;33.40
62573;DHT22;48626;51.678;5.806;2022-07-23T15:22:43;33.50;34.60
62573;DHT22;48626;51.678;5.806;2022-07-23T15:25:11;32.90;34.40
62573;DHT22;48626;51.678;5.806;2022-07-23T15:27:36;32.40;38.00
62573;DHT22;48626;51.678;5.806;2022-07-23T15:30:03;32.20;37.60
62573;DHT22;48626;51.678;5.806;2022-07-23T15:32:29;32.70;39.20
62573;DHT22;48626;51.678;5.806;2022-07-23T15:34:55;33.20;40.00
62573;DHT22;48626;51.678;5.806;2022-07-23T15:37:21;33.30;38.80
62573;DHT22;48626;51.678;5.806;2022-07-23T15:39:48;33.10;38.70
62573;DHT22;48626;51.678;5.806;2022-07-23T15:42:14;33.00;38.00
62573;DHT22;48626;51.678;5.806;2022-07-23T15:44:40;33.00;37.60
62573;DHT22;48626;51.678;5.806;2022-07-23T15:47:12;32.70;39.70
62573;DHT22;48626;51.678;5.806;2022-07-23T15:49:37;32.70;40.30
62573;DHT22;48626;51.678;5.806;2022-07-23T15:52:03;32.20;39.50
62573;DHT22;48626;51.678;5.806;2022-07-23T15:54:29;31.80;41.40
62573;DHT22;48626;51.678;5.806;2022-07-23T15:56:54;31.60;42.10
62573;DHT22;48626;51.678;5.806;2022-07-23T15:59:20;31.20;41.20
62573;DHT22;48626;51.678;5.806;2022-07-23T16:01:46;30.90;38.90
62573;DHT22;48626;51.678;5.806;2022-07-23T16:04:11;30.30;39.50
62573;DHT22;48626;51.678;5.806;2022-07-23T16:06:37;30.10;42.20
62573;DHT22;48626;51.678;5.806;2022-07-23T16:09:03;29.80;42.80
62573;DHT22;48626;51.678;5.806;2022-07-23T16:11:29;29.70;44.60
62573;DHT22;48626;51.678;5.806;2022-07-23T16:13:55;29.60;44.70
62573;DHT22;48626;51.678;5.806;2022-07-23T16:16:20;29.40;41.80